Weather at Reykjavik Airport

Public forecast

Using degrees Celsius for public forecast. Weather courtesy of forecast.io.

Current aviation weather report (METAR) for Reykjavik Airport

Retrieved 2021/05/11 17:00 UTC (4 minutes ago):

BIRK 111700Z 29009KT CAVOK 05/M07 Q1020

Aviation forecast (TAF) for Reykjavik Airport

Retrieved 2021/05/11 15:09 UTC (2 hours ago):

TAF BIRK 111307Z 1115/1215 30010KT CAVOK TX07/1212Z TN00/1204Z BECMG 1200/1202 18004KT 9999 FEW040 BECMG 1210/1212 SCT020 BKN035 PROB40 TEMPO 1213/1215 -SHRA BKN018